Time;durP1;ratioP1;P1;durP2;ratioP2;P2;SDS_P1;SDS_P2;PMS_P1;PMS_P2;Temp;Humidity;BMP_temperature;BMP_pressure;BME280_temperature;BME280_humidity;BME280_pressure;Samples;Min_cycle;Max_cycle;Signal;HPM_P1;HPM_P2
2022/05/17 00:00:52;;;;;;;2.83;1.77;;;25.50;47.10;;;;;;5005531;28;20076;-51
2022/05/17 00:03:18;;;;;;;3.63;1.92;;;25.50;47.00;;;;;;5005844;28;20022;-50
2022/05/17 00:05:45;;;;;;;2.83;1.27;;;25.60;47.00;;;;;;5004648;28;20026;-52
2022/05/17 00:08:13;;;;;;;3.17;1.92;;;25.60;47.00;;;;;;5005858;28;20026;-51
2022/05/17 00:10:39;;;;;;;3.40;1.77;;;25.60;47.00;;;;;;5005837;28;20057;-51
2022/05/17 00:13:05;;;;;;;3.53;1.90;;;25.50;47.00;;;;;;5004373;28;20018;-52
2022/05/17 00:15:32;;;;;;;2.85;1.73;;;25.50;47.00;;;;;;5005583;28;20026;-51
2022/05/17 00:17:57;;;;;;;2.70;1.52;;;25.50;47.10;;;;;;5005878;28;20029;-53
2022/05/17 00:20:24;;;;;;;8.80;2.17;;;25.50;47.90;;;;;;5004802;28;20584;-51
2022/05/17 00:22:50;;;;;;;2.88;1.60;;;25.50;47.10;;;;;;5005318;28;20648;-52
2022/05/17 00:25:19;;;;;;;2.97;1.63;;;25.50;47.20;;;;;;5005499;28;20034;-51
2022/05/17 00:27:46;;;;;;;2.90;1.80;;;25.50;47.20;;;;;;5003552;28;20026;-51
2022/05/17 00:30:12;;;;;;;2.50;1.60;;;25.50;47.20;;;;;;5005279;28;20385;-51
2022/05/17 00:32:38;;;;;;;2.95;1.58;;;25.50;47.30;;;;;;5005169;28;20026;-51
2022/05/17 00:35:05;;;;;;;2.33;1.40;;;25.50;47.90;;;;;;5005318;28;20022;-51
2022/05/17 00:37:30;;;;;;;3.35;1.75;;;25.50;47.20;;;;;;5005031;28;20152;-52
2022/05/17 00:39:56;;;;;;;3.15;1.85;;;25.50;47.20;;;;;;5005690;28;20109;-51
2022/05/17 00:42:22;;;;;;;2.40;1.45;;;25.50;47.20;;;;;;5005287;28;20022;-52
2022/05/17 00:44:48;;;;;;;2.70;1.50;;;25.50;47.20;;;;;;5003974;28;20050;-51
2022/05/17 00:47:33;;;;;;;3.25;1.80;;;25.50;47.10;;;;;;5005520;28;20119;-51
2022/05/17 00:50:07;;;;;;;2.78;1.42;;;25.50;47.00;;;;;;5004160;28;20022;-51
2022/05/17 00:52:44;;;;;;;2.42;1.48;;;25.50;47.00;;;;;;5005460;28;20029;-51
2022/05/17 00:55:17;;;;;;;2.60;1.40;;;25.50;47.00;;;;;;5003668;28;20030;-53
2022/05/17 00:57:58;;;;;;;3.90;1.85;;;25.50;47.00;;;;;;5003251;28;20037;-51
2022/05/17 01:00:28;;;;;;;2.53;1.42;;;25.50;46.90;;;;;;5005232;28;20038;-51
2022/05/17 01:02:59;;;;;;;2.55;1.30;;;25.50;47.00;;;;;;5005448;28;20026;-51
2022/05/17 01:05:26;;;;;;;2.95;1.50;;;25.50;46.90;;;;;;5004934;28;20026;-53
2022/05/17 01:07:57;;;;;;;2.30;1.40;;;25.50;47.00;;;;;;5001873;28;20022;-50
2022/05/17 01:10:27;;;;;;;1.88;1.23;;;25.50;47.00;;;;;;5004060;28;20033;-52
2022/05/17 01:15:39;;;;;;;2.35;1.33;;;25.50;47.00;;;;;;4998034;28;20053;-52
2022/05/17 01:18:06;;;;;;;3.72;1.60;;;25.50;47.00;;;;;;5004641;28;20466;-52
2022/05/17 01:20:32;;;;;;;1.90;1.17;;;25.50;47.10;;;;;;5004095;28;20026;-53
2022/05/17 01:22:59;;;;;;;3.13;1.35;;;25.50;47.00;;;;;;5005161;28;20029;-51
2022/05/17 01:25:26;;;;;;;2.63;1.40;;;25.50;47.00;;;;;;5003672;28;20032;-51
2022/05/17 01:27:57;;;;;;;2.00;1.10;;;25.50;47.10;;;;;;5004429;28;20076;-51
2022/05/17 01:30:26;;;;;;;2.40;1.37;;;25.50;47.10;;;;;;5004565;28;20033;-51
2022/05/17 01:32:52;;;;;;;2.72;1.27;;;25.50;47.00;;;;;;5004866;28;20421;-51
2022/05/17 01:35:19;;;;;;;2.38;1.38;;;25.50;46.90;;;;;;5004692;28;20030;-52
2022/05/17 01:37:48;;;;;;;2.13;1.08;;;25.50;46.90;;;;;;5004290;28;20037;-50
2022/05/17 01:40:14;;;;;;;2.80;1.13;;;25.50;46.80;;;;;;5003271;28;20033;-53
2022/05/17 01:42:40;;;;;;;1.85;1.17;;;25.50;46.80;;;;;;5004384;28;20577;-50
2022/05/17 01:45:06;;;;;;;2.22;1.00;;;25.50;46.70;;;;;;5003228;28;20054;-53
2022/05/17 01:47:32;;;;;;;2.97;1.13;;;25.50;46.70;;;;;;5003929;28;20030;-52
2022/05/17 01:49:57;;;;;;;3.30;1.33;;;25.50;46.70;;;;;;5004002;28;20025;-51
2022/05/17 01:52:23;;;;;;;3.67;1.60;;;25.50;46.70;;;;;;5003184;28;20513;-51
2022/05/17 01:54:49;;;;;;;2.80;1.50;;;25.50;46.80;;;;;;5001860;28;20030;-50
2022/05/17 01:57:15;;;;;;;2.70;1.30;;;25.50;46.80;;;;;;5002770;28;20080;-53
2022/05/17 01:59:40;;;;;;;2.30;1.25;;;25.50;46.80;;;;;;5003494;28;20061;-50
2022/05/17 02:02:06;;;;;;;2.65;1.20;;;25.50;46.90;;;;;;5003988;28;20076;-52
2022/05/17 02:04:32;;;;;;;3.25;1.45;;;25.50;46.80;;;;;;5003666;28;20025;-51
2022/05/17 02:06:58;;;;;;;2.80;1.40;;;25.50;46.90;;;;;;5003558;28;20029;-51
2022/05/17 02:09:24;;;;;;;2.22;1.10;;;25.50;46.80;;;;;;5004090;28;20037;-50
2022/05/17 02:11:49;;;;;;;2.63;1.33;;;25.50;46.80;;;;;;5003400;28;20037;-51
2022/05/17 02:14:17;;;;;;;2.72;1.38;;;25.50;46.80;;;;;;5003857;28;20083;-51
2022/05/17 02:16:43;;;;;;;2.63;1.20;;;25.50;46.70;;;;;;5003289;28;20026;-52
2022/05/17 02:19:09;;;;;;;3.47;1.45;;;25.50;46.80;;;;;;5003798;28;20053;-51
2022/05/17 02:21:36;;;;;;;2.33;1.20;;;25.50;46.70;;;;;;5001609;28;20056;-53
2022/05/17 02:24:03;;;;;;;2.78;1.35;;;25.50;46.70;;;;;;5002455;28;20695;-49
2022/05/17 02:26:30;;;;;;;3.33;1.60;;;25.50;46.60;;;;;;5003689;28;20053;-49
2022/05/17 02:28:56;;;;;;;2.78;1.48;;;25.50;46.60;;;;;;5003848;28;20636;-49
2022/05/17 02:31:23;;;;;;;2.15;1.30;;;25.50;46.60;;;;;;5002545;28;20018;-49
2022/05/17 02:33:50;;;;;;;1.98;0.93;;;25.50;46.60;;;;;;5003506;28;20034;-50
2022/05/17 02:36:15;;;;;;;2.45;1.10;;;25.50;46.60;;;;;;5002537;28;20029;-50
2022/05/17 02:38:43;;;;;;;2.47;1.00;;;25.50;46.50;;;;;;5003765;28;20030;-50
2022/05/17 02:41:10;;;;;;;1.83;1.00;;;25.50;46.50;;;;;;5002137;28;20103;-49
2022/05/17 02:43:36;;;;;;;3.28;1.33;;;25.50;46.60;;;;;;5003217;28;20060;-50
2022/05/17 02:46:01;;;;;;;2.53;1.23;;;25.50;46.50;;;;;;5003582;28;20670;-50
2022/05/17 02:48:27;;;;;;;1.83;1.00;;;25.50;46.60;;;;;;5003017;28;20034;-50
2022/05/17 02:50:53;;;;;;;2.10;1.20;;;25.50;46.50;;;;;;5003628;28;20022;-51
2022/05/17 02:53:18;;;;;;;2.25;1.10;;;25.50;46.60;;;;;;5003634;28;20022;-51
2022/05/17 02:55:44;;;;;;;2.60;1.10;;;25.50;46.50;;;;;;5004395;28;20026;-50
2022/05/17 02:58:10;;;;;;;2.65;1.10;;;25.50;46.40;;;;;;5006588;28;20022;-48
2022/05/17 03:00:35;;;;;;;2.72;1.20;;;25.50;46.40;;;;;;5007648;28;20026;-48
2022/05/17 03:03:01;;;;;;;2.08;0.98;;;25.50;46.60;;;;;;5007684;28;20049;-49
2022/05/17 03:05:27;;;;;;;2.45;1.27;;;25.40;46.40;;;;;;5007560;28;20050;-53
2022/05/17 03:07:53;;;;;;;2.90;1.45;;;25.50;46.20;;;;;;5007362;28;20049;-52
2022/05/17 03:10:19;;;;;;;2.60;1.10;;;25.40;46.00;;;;;;5007118;28;20034;-53
2022/05/17 03:12:45;;;;;;;2.25;1.20;;;25.50;46.10;;;;;;5007376;28;20316;-52
2022/05/17 03:15:18;;;;;;;2.40;1.10;;;25.50;46.00;;;;;;5006932;28;20030;-52
2022/05/17 03:17:43;;;;;;;;;;;25.40;46.00;;;;;;5007316;28;20053;-53
2022/05/17 03:20:10;;;;;;;1.80;0.77;;;25.40;46.10;;;;;;5006978;28;19956;-53
2022/05/17 03:22:36;;;;;;;3.15;1.10;;;25.40;46.10;;;;;;5005514;28;20763;-51
2022/05/17 03:25:03;;;;;;;2.25;1.08;;;25.40;45.90;;;;;;5006808;28;20053;-52
2022/05/17 03:27:29;;;;;;;3.78;1.30;;;25.40;46.10;;;;;;5007082;28;20022;-52
2022/05/17 03:29:55;;;;;;;2.47;1.00;;;25.40;46.10;;;;;;5007277;28;20022;-51
2022/05/17 03:32:20;;;;;;;2.33;1.13;;;25.40;46.20;;;;;;5006708;28;20034;-50
2022/05/17 03:34:46;;;;;;;2.42;1.13;;;25.40;46.30;;;;;;5006899;28;20446;-53
2022/05/17 03:37:13;;;;;;;2.60;1.10;;;25.40;46.10;;;;;;5006334;28;20586;-53
2022/05/17 03:39:38;;;;;;;1.73;0.82;;;25.40;46.10;;;;;;5006882;28;20037;-50
2022/05/17 03:42:05;;;;;;;3.10;1.35;;;25.40;46.10;;;;;;5006567;28;20026;-50
2022/05/17 03:44:30;;;;;;;2.00;1.10;;;25.40;46.20;;;;;;5006790;28;20014;-51
2022/05/17 03:46:56;;;;;;;2.35;0.90;;;25.40;46.20;;;;;;5006728;28;20017;-51
2022/05/17 03:49:22;;;;;;;2.30;0.98;;;25.40;46.30;;;;;;5006553;28;20034;-51
2022/05/17 03:51:48;;;;;;;2.67;1.20;;;25.40;46.30;;;;;;5006380;28;20021;-51
2022/05/17 03:54:18;;;;;;;2.58;1.20;;;25.40;46.30;;;;;;5006071;28;20490;-50
2022/05/17 03:56:46;;;;;;;2.78;0.93;;;25.40;46.30;;;;;;5004629;28;20034;-51
2022/05/17 03:59:11;;;;;;;2.33;1.15;;;25.40;46.20;;;;;;5006300;28;20552;-52
2022/05/17 04:01:37;;;;;;;2.97;1.27;;;25.40;46.20;;;;;;5006565;28;20029;-52
2022/05/17 04:04:03;;;;;;;2.45;0.90;;;25.40;46.20;;;;;;5006325;28;20571;-53
2022/05/17 04:06:29;;;;;;;1.20;0.70;;;25.40;46.20;;;;;;5006034;28;20025;-52
2022/05/17 04:08:54;;;;;;;10.25;3.60;;;25.40;46.30;;;;;;5005023;28;20022;-52
2022/05/17 04:11:20;;;;;;;11.43;4.25;;;25.40;50.10;;;;;;4988227;28;20689;-54
2022/05/17 04:13:46;;;;;;;9.43;3.28;;;25.40;51.30;;;;;;5005681;28;20504;-53
2022/05/17 04:16:11;;;;;;;10.75;3.78;;;25.50;51.30;;;;;;5004906;28;20057;-52
2022/05/17 04:18:37;;;;;;;11.70;4.22;;;25.50;50.90;;;;;;5005367;28;20052;-52
2022/05/17 04:21:04;;;;;;;8.63;3.00;;;25.50;50.80;;;;;;5005409;28;20184;-52
2022/05/17 04:23:30;;;;;;;6.63;3.08;;;25.50;50.40;;;;;;5003411;28;20026;-51
2022/05/17 04:25:56;;;;;;;9.13;3.05;;;25.50;50.50;;;;;;5005673;28;20032;-52
2022/05/17 04:28:22;;;;;;;9.77;3.00;;;25.50;50.40;;;;;;5005527;28;20120;-53
2022/05/17 04:30:49;;;;;;;6.95;2.53;;;25.50;50.30;;;;;;5006036;28;20080;-52
2022/05/17 04:33:14;;;;;;;7.80;2.90;;;25.50;50.10;;;;;;5006016;28;20030;-52
2022/05/17 04:35:41;;;;;;;6.53;2.78;;;25.50;49.90;;;;;;5005874;28;20037;-53
2022/05/17 04:38:07;;;;;;;6.93;2.88;;;25.50;49.50;;;;;;5004722;28;20022;-52
2022/05/17 04:40:34;;;;;;;4.82;2.00;;;25.50;49.40;;;;;;5005605;28;20496;-53
2022/05/17 04:42:59;;;;;;;5.88;2.03;;;25.50;49.20;;;;;;5004805;28;20022;-53
2022/05/17 04:45:25;;;;;;;5.50;1.90;;;25.50;48.70;;;;;;5005767;28;20032;-53
2022/05/17 04:47:51;;;;;;;4.85;1.90;;;25.60;48.50;;;;;;5005453;28;20058;-53
2022/05/17 04:50:18;;;;;;;4.68;1.70;;;25.50;48.40;;;;;;5004530;28;20029;-53
2022/05/17 04:52:46;;;;;;;4.90;2.05;;;25.50;48.20;;;;;;5005478;28;20101;-52
2022/05/17 04:55:14;;;;;;;3.67;1.60;;;25.50;47.90;;;;;;5005742;28;20064;-54
2022/05/17 04:57:39;;;;;;;3.70;1.70;;;25.60;47.90;;;;;;5005570;28;20053;-53
2022/05/17 05:00:11;;;;;;;3.72;1.67;;;25.50;47.90;;;;;;5005840;28;20042;-52
2022/05/17 05:02:37;;;;;;;4.40;1.75;;;25.50;47.80;;;;;;5003811;28;20026;-53
2022/05/17 05:05:06;;;;;;;3.78;1.52;;;25.50;47.80;;;;;;5004995;28;20096;-52
2022/05/17 05:07:32;;;;;;;4.10;1.58;;;25.60;47.80;;;;;;5003261;28;20057;-52
2022/05/17 05:09:57;;;;;;;3.38;1.50;;;25.60;47.80;;;;;;5004159;28;20052;-51
2022/05/17 05:12:23;;;;;;;4.10;1.95;;;25.60;48.00;;;;;;5005253;28;20572;-52
2022/05/17 05:14:49;;;;;;;3.45;1.48;;;25.60;48.20;;;;;;5005152;28;20640;-52
2022/05/17 05:17:15;;;;;;;3.30;1.42;;;25.60;48.30;;;;;;5001973;28;20037;-48
2022/05/17 05:19:40;;;;;;;3.05;1.42;;;25.60;48.10;;;;;;5004845;28;20064;-50
2022/05/17 05:22:06;;;;;;;2.90;1.40;;;25.50;48.50;;;;;;5004656;28;20394;-49
2022/05/17 05:24:32;;;;;;;2.97;1.52;;;25.50;48.70;;;;;;5005285;28;20387;-49
2022/05/17 05:26:58;;;;;;;3.28;1.50;;;25.60;48.70;;;;;;5004421;28;20080;-49
2022/05/17 05:29:25;;;;;;;2.88;1.40;;;25.60;48.50;;;;;;5004481;28;20029;-49
2022/05/17 05:31:50;;;;;;;3.35;1.50;;;25.50;48.50;;;;;;5005112;28;20518;-49
2022/05/17 05:34:16;;;;;;;2.92;1.40;;;25.60;48.30;;;;;;5003214;28;20046;-49
2022/05/17 05:36:43;;;;;;;3.78;1.63;;;25.50;48.30;;;;;;5002550;28;20109;-49
2022/05/17 05:39:09;;;;;;;3.67;1.50;;;25.50;48.50;;;;;;5003895;28;20030;-50
2022/05/17 05:41:35;;;;;;;4.57;1.63;;;25.60;48.40;;;;;;5004251;28;20041;-50
2022/05/17 05:44:01;;;;;;;3.38;1.67;;;25.50;48.40;;;;;;5004369;28;20381;-49
2022/05/17 05:46:27;;;;;;;2.65;1.27;;;25.50;48.50;;;;;;5003875;28;20037;-49
2022/05/17 05:48:53;;;;;;;3.28;1.83;;;25.50;48.80;;;;;;5004101;28;20665;-50
2022/05/17 05:51:19;;;;;;;4.13;1.83;;;25.50;48.80;;;;;;5003534;28;20026;-49
2022/05/17 05:53:45;;;;;;;3.75;1.85;;;25.50;49.10;;;;;;5004570;28;20080;-49
2022/05/17 05:56:11;;;;;;;3.35;1.73;;;25.60;48.80;;;;;;5003733;28;20026;-51
2022/05/17 05:58:39;;;;;;;3.47;1.65;;;25.60;48.50;;;;;;5003482;28;20034;-48
2022/05/17 06:01:06;;;;;;;3.60;1.42;;;25.50;48.30;;;;;;5004833;28;20113;-48
2022/05/17 06:03:33;;;;;;;4.55;1.80;;;25.50;48.30;;;;;;5004944;28;20029;-48
2022/05/17 06:06:00;;;;;;;3.80;1.70;;;25.50;49.10;;;;;;5003923;28;20026;-53
2022/05/17 06:08:26;;;;;;;3.25;1.52;;;25.50;49.00;;;;;;5003709;28;20026;-51
2022/05/17 06:10:52;;;;;;;4.60;1.63;;;25.50;48.60;;;;;;5003774;28;20030;-51
2022/05/17 06:13:18;;;;;;;3.47;1.70;;;25.50;48.40;;;;;;5003638;28;20542;-52
2022/05/17 06:15:45;;;;;;;2.65;1.30;;;25.50;48.50;;;;;;5003379;28;20033;-51
2022/05/17 06:18:11;;;;;;;3.75;1.70;;;25.50;48.50;;;;;;5002943;28;20052;-51
2022/05/17 06:20:37;;;;;;;4.20;2.10;;;25.50;48.50;;;;;;5003450;28;20654;-60
2022/05/17 06:23:05;;;;;;;3.42;1.63;;;25.50;48.40;;;;;;5003260;28;20038;-52
2022/05/17 06:25:32;;;;;;;3.25;1.65;;;25.50;48.90;;;;;;5003312;28;20026;-54
2022/05/17 06:27:59;;;;;;;2.72;1.67;;;25.50;48.90;;;;;;5003072;28;20438;-54
2022/05/17 06:30:24;;;;;;;4.13;2.00;;;25.50;49.00;;;;;;5002773;28;20099;-54
2022/05/17 06:32:51;;;;;;;4.43;1.73;;;25.50;48.90;;;;;;5003884;28;20454;-53
2022/05/17 06:35:17;;;;;;;3.80;1.70;;;25.50;48.80;;;;;;5003892;28;20226;-54
2022/05/17 06:37:44;;;;;;;3.33;1.60;;;25.50;48.80;;;;;;5004263;28;20522;-54
2022/05/17 06:40:10;;;;;;;3.35;1.50;;;25.50;48.70;;;;;;5003998;28;20379;-54
2022/05/17 06:42:37;;;;;;;3.97;1.67;;;25.50;48.70;;;;;;5004529;28;20045;-55
2022/05/17 06:45:03;;;;;;;3.92;1.90;;;25.50;48.70;;;;;;5004185;28;20022;-53
2022/05/17 06:47:29;;;;;;;4.00;1.50;;;25.50;48.70;;;;;;5004307;28;20056;-53
2022/05/17 06:49:55;;;;;;;3.83;1.58;;;25.50;48.60;;;;;;5004275;28;20577;-54
2022/05/17 06:52:26;;;;;;;4.18;1.70;;;25.50;48.60;;;;;;5004394;28;20026;-54
2022/05/17 06:54:52;;;;;;;2.85;1.33;;;25.50;48.50;;;;;;5004622;28;20037;-54
2022/05/17 06:57:18;;;;;;;2.28;1.17;;;25.50;48.50;;;;;;5003677;28;20034;-55
2022/05/17 06:59:45;;;;;;;2.55;1.35;;;25.50;48.40;;;;;;5003661;28;20026;-54
2022/05/17 07:02:11;;;;;;;3.10;1.60;;;25.50;48.40;;;;;;5002992;28;20029;-54
2022/05/17 07:04:38;;;;;;;3.78;1.48;;;25.50;48.30;;;;;;5004204;28;20049;-54
2022/05/17 07:07:05;;;;;;;2.78;1.38;;;25.50;48.30;;;;;;5003656;28;20100;-54
2022/05/17 07:09:32;;;;;;;2.28;1.30;;;25.50;48.30;;;;;;5003420;28;20037;-54
2022/05/17 07:14:43;;;;;;;3.75;1.25;;;25.50;48.10;;;;;;5004699;28;20084;-55
2022/05/17 07:17:15;;;;;;;3.03;1.42;;;25.50;48.10;;;;;;5003421;28;20448;-55
2022/05/17 07:19:42;;;;;;;2.60;1.30;;;25.50;48.10;;;;;;5003389;28;20125;-54
2022/05/17 07:22:08;;;;;;;2.28;1.15;;;25.50;48.00;;;;;;5004207;28;20030;-53
2022/05/17 07:24:36;;;;;;;2.72;1.30;;;25.50;48.00;;;;;;5004009;28;20026;-54
2022/05/17 07:27:04;;;;;;;1.85;1.00;;;25.50;47.90;;;;;;5001363;28;20041;-54
2022/05/17 07:29:30;;;;;;;3.10;1.38;;;25.50;47.90;;;;;;4986182;28;20030;-55
2022/05/17 07:31:56;;;;;;;2.58;1.25;;;25.50;47.80;;;;;;4984832;28;20121;-54
2022/05/17 07:34:22;;;;;;;3.65;1.20;;;25.50;47.80;;;;;;4984380;28;20031;-54
2022/05/17 07:36:49;;;;;;;2.97;1.10;;;25.50;47.80;;;;;;4984418;28;20049;-54
2022/05/17 07:39:15;;;;;;;2.25;1.02;;;25.50;47.80;;;;;;4988064;28;20104;-53
2022/05/17 07:41:41;;;;;;;2.35;1.20;;;25.50;47.80;;;;;;5003841;28;20038;-55
2022/05/17 07:44:08;;;;;;;1.90;1.02;;;25.50;47.70;;;;;;5006970;28;20045;-54
2022/05/17 07:46:34;;;;;;;2.40;1.20;;;25.50;47.70;;;;;;5005936;28;20037;-54
2022/05/17 07:49:01;;;;;;;2.33;1.00;;;25.50;47.70;;;;;;5007586;28;20022;-54
2022/05/17 07:51:27;;;;;;;2.28;1.17;;;25.50;47.70;;;;;;5007541;28;20122;-55
2022/05/17 07:53:53;;;;;;;2.38;1.20;;;25.50;47.60;;;;;;5007072;28;20719;-55
2022/05/17 07:56:19;;;;;;;3.05;1.38;;;25.50;47.60;;;;;;5006157;28;20084;-54
2022/05/17 07:58:45;;;;;;;3.40;1.48;;;25.50;47.60;;;;;;5006653;28;20037;-54
2022/05/17 08:01:10;;;;;;;2.40;1.08;;;25.50;47.60;;;;;;5006896;28;20041;-55
2022/05/17 08:03:36;;;;;;;3.08;1.27;;;25.50;47.70;;;;;;5006791;28;20433;-55
2022/05/17 08:06:02;;;;;;;2.92;1.13;;;25.50;47.70;;;;;;5006115;28;20109;-54
2022/05/17 08:08:28;;;;;;;2.35;1.20;;;25.50;47.70;;;;;;5006588;28;20034;-56
2022/05/17 08:10:54;;;;;;;1.70;0.90;;;25.50;47.70;;;;;;5006732;28;20030;-55
2022/05/17 08:13:22;;;;;;;2.75;1.10;;;25.50;47.60;;;;;;5006196;28;20666;-54
2022/05/17 08:15:49;;;;;;;2.03;0.90;;;25.50;47.60;;;;;;5006675;28;20036;-54
2022/05/17 08:18:15;;;;;;;2.42;1.20;;;25.50;47.50;;;;;;5005891;28;20026;-54
2022/05/17 08:20:42;;;;;;;3.40;1.40;;;25.50;47.60;;;;;;5006558;28;20058;-54
2022/05/17 08:23:10;;;;;;;2.75;1.20;;;25.50;47.60;;;;;;5006491;28;20191;-55
2022/05/17 08:28:20;;;;;;;1.92;1.15;;;25.50;47.50;;;;;;5001754;28;20091;-54
2022/05/17 08:30:47;;;;;;;1.92;1.02;;;25.50;47.50;;;;;;4986666;28;20482;-54
2022/05/17 08:33:16;;;;;;;3.65;1.50;;;25.40;47.50;;;;;;4986617;28;20224;-54
2022/05/17 08:35:53;;;;;;;1.70;1.00;;;25.40;47.50;;;;;;4986864;28;20026;-55
2022/05/17 08:38:28;;;;;;;2.13;1.05;;;25.50;47.60;;;;;;4987168;28;20061;-54
2022/05/17 08:41:06;;;;;;;2.63;1.13;;;25.40;47.60;;;;;;4989492;28;20533;-55
2022/05/17 08:43:41;;;;;;;2.05;1.20;;;25.40;47.60;;;;;;5005305;28;20084;-55
2022/05/17 08:46:17;;;;;;;3.38;1.02;;;25.40;47.60;;;;;;5004644;28;20326;-54
2022/05/17 08:49:05;;;;;;;2.00;1.30;;;25.50;47.60;;;;;;5005081;28;20033;-55
2022/05/17 08:51:34;;;;;;;2.38;1.10;;;25.40;47.60;;;;;;5005979;28;20030;-55
2022/05/17 08:54:03;;;;;;;2.22;1.00;;;25.50;47.60;;;;;;5005522;28;20061;-55
2022/05/17 08:56:34;;;;;;;2.22;1.25;;;25.40;47.60;;;;;;5005227;28;20111;-54
2022/05/17 08:59:01;;;;;;;2.08;1.20;;;25.40;47.60;;;;;;5005584;28;20026;-54
2022/05/17 09:01:37;;;;;;;2.90;1.20;;;25.50;47.50;;;;;;5004553;28;20454;-55
2022/05/17 09:04:30;;;;;;;2.03;1.13;;;25.50;47.50;;;;;;5005325;28;20054;-54
2022/05/17 09:06:59;;;;;;;1.65;0.80;;;25.50;47.50;;;;;;4974821;28;20034;-55
2022/05/17 09:09:31;;;;;;;2.85;0.93;;;25.50;47.50;;;;;;5006088;28;20034;-58
2022/05/17 09:12:08;;;;;;;2.58;1.10;;;25.50;47.40;;;;;;5005137;28;20402;-54
2022/05/17 09:14:37;;;;;;;2.22;1.13;;;25.50;47.40;;;;;;5004724;28;20073;-55
2022/05/17 09:17:10;;;;;;;2.85;1.15;;;25.50;47.40;;;;;;5005041;28;20116;-54
2022/05/17 09:19:36;;;;;;;1.85;0.95;;;25.50;47.40;;;;;;5005149;28;20026;-54
2022/05/17 09:22:03;;;;;;;3.20;1.60;;;25.50;47.50;;;;;;5005374;28;20032;-54
2022/05/17 09:24:34;;;;;;;2.80;1.17;;;25.50;47.60;;;;;;5005123;28;20029;-54
2022/05/17 09:27:09;;;;;;;2.03;1.08;;;25.50;47.50;;;;;;5005137;28;20604;-55
2022/05/17 09:29:45;;;;;;;2.90;1.40;;;25.50;47.50;;;;;;5001421;28;20057;-54
2022/05/17 09:32:12;;;;;;;2.08;1.00;;;25.50;47.60;;;;;;4996922;28;20030;-53
2022/05/17 09:34:45;;;;;;;2.50;1.08;;;25.50;47.50;;;;;;5005026;28;20025;-54
2022/05/17 09:37:15;;;;;;;3.10;1.23;;;25.50;47.50;;;;;;5004586;28;20032;-54
2022/05/17 09:39:49;;;;;;;2.03;0.98;;;25.50;47.60;;;;;;5004865;28;20501;-55
2022/05/17 09:42:36;;;;;;;1.80;0.98;;;25.50;47.50;;;;;;5005377;28;20170;-56
2022/05/17 09:45:06;;;;;;;2.10;1.00;;;25.50;47.50;;;;;;5005388;28;20498;-55
2022/05/17 09:47:34;;;;;;;1.88;1.00;;;25.50;47.40;;;;;;5004493;28;20026;-54
2022/05/17 09:53:14;;;;;;;1.65;0.98;;;25.50;47.40;;;;;;5005197;28;20539;-55
2022/05/17 09:55:43;;;;;;;1.92;0.80;;;25.50;47.40;;;;;;5005362;28;20028;-55
2022/05/17 09:58:29;;;;;;;1.67;1.00;;;25.50;47.30;;;;;;5004635;28;20037;-55
2022/05/17 10:00:56;;;;;;;2.03;0.98;;;25.50;47.40;;;;;;5004400;28;20059;-54
2022/05/17 10:03:34;;;;;;;3.08;1.30;;;25.50;47.30;;;;;;5004961;28;20105;-55
2022/05/17 10:06:12;;;;;;;1.80;1.10;;;25.50;47.40;;;;;;5004128;28;20026;-54
2022/05/17 10:09:12;;;;;;;2.22;1.08;;;25.50;47.40;;;;;;5004355;28;20030;-54
2022/05/17 10:11:48;;;;;;;2.20;1.00;;;25.50;47.40;;;;;;4993962;28;20091;-54
2022/05/17 10:14:25;;;;;;;1.67;0.90;;;25.50;47.40;;;;;;5004187;28;20072;-53
2022/05/17 10:16:57;;;;;;;2.42;1.20;;;25.50;47.40;;;;;;5004144;28;20042;-55
2022/05/17 10:19:48;;;;;;;2.42;1.00;;;25.50;47.40;;;;;;5004694;28;20478;-56
2022/05/17 10:22:41;;;;;;;2.83;1.20;;;25.50;47.40;;;;;;5004517;28;20588;-54
2022/05/17 10:25:46;;;;;;;1.77;0.90;;;25.50;47.40;;;;;;5004350;28;20034;-55
2022/05/17 10:28:50;;;;;;;1.50;0.75;;;25.50;47.40;;;;;;5004067;28;20116;-54
2022/05/17 10:31:34;;;;;;;2.22;1.10;;;25.50;47.40;;;;;;4996357;28;20055;-54
2022/05/17 10:34:30;;;;;;;2.63;1.10;;;25.50;47.40;;;;;;4984879;28;20418;-54
2022/05/17 10:37:07;;;;;;;1.88;1.02;;;25.50;47.30;;;;;;4984364;28;20151;-54
2022/05/17 10:40:18;;;;;;;2.28;1.02;;;25.50;47.30;;;;;;4991857;28;20027;-54
2022/05/17 10:42:45;;;;;;;1.98;1.10;;;25.50;47.30;;;;;;4972789;28;20045;-53
2022/05/17 10:45:20;;;;;;;1.85;1.13;;;25.50;47.60;;;;;;4985034;28;20033;-55
2022/05/17 10:48:03;;;;;;;1.85;0.98;;;25.50;47.20;;;;;;4984664;28;20030;-55
2022/05/17 10:50:36;;;;;;;;;;;25.50;47.30;;;;;;4985354;28;20058;-53
2022/05/17 10:53:20;;;;;;;2.08;0.98;;;25.50;47.20;;;;;;4985321;28;20381;-55
2022/05/17 10:56:01;;;;;;;3.92;1.25;;;25.50;47.20;;;;;;4984906;28;20472;-55
2022/05/17 10:58:45;;;;;;;2.13;1.10;;;25.50;47.30;;;;;;4984572;28;20070;-53
2022/05/17 11:01:33;;;;;;;2.50;1.00;;;25.50;47.30;;;;;;5002046;28;20154;-55
2022/05/17 11:04:20;;;;;;;2.28;1.20;;;25.50;47.40;;;;;;5003095;28;20050;-55
2022/05/17 11:07:20;;;;;;;1.45;0.90;;;25.40;47.40;;;;;;5003835;28;20092;-54
2022/05/17 11:10:07;;;;;;;2.08;1.13;;;25.50;47.40;;;;;;5004273;28;20065;-55
2022/05/17 11:12:40;;;;;;;2.67;1.15;;;25.50;47.30;;;;;;5004297;28;20049;-53
2022/05/17 11:15:10;;;;;;;;;;;25.40;47.30;;;;;;5004440;28;20725;-54
2022/05/17 11:17:57;;;;;;;2.08;0.80;;;25.50;47.30;;;;;;5006235;28;19998;-55
2022/05/17 11:20:26;;;;;;;2.95;1.02;;;25.50;47.20;;;;;;5007824;28;20022;-55
2022/05/17 11:23:11;;;;;;;2.88;1.00;;;25.50;47.20;;;;;;5008088;28;20050;-53
2022/05/17 11:26:15;;;;;;;1.73;0.85;;;25.50;47.20;;;;;;5007956;28;20033;-54
2022/05/17 11:28:59;;;;;;;1.80;0.90;;;25.40;47.20;;;;;;4988079;28;20049;-54
2022/05/17 11:31:36;;;;;;;2.03;0.90;;;25.40;47.20;;;;;;5004089;28;20565;-54
2022/05/17 11:34:28;;;;;;;1.80;0.90;;;25.40;47.10;;;;;;4987461;28;20088;-55
2022/05/17 11:37:16;;;;;;;1.77;0.90;;;25.50;47.20;;;;;;4988070;28;20726;-54
2022/05/17 11:39:49;;;;;;;2.03;0.90;;;25.40;47.10;;;;;;4966797;28;20078;-54
2022/05/17 11:43:39;;;;;;;1.88;0.95;;;25.50;47.20;;;;;;4996975;28;20038;-53
2022/05/17 11:45:39;;;;;;;1.65;0.88;;;25.40;47.20;;;;;;5007932;28;20218;-55
2022/05/17 11:48:15;;;;;;;2.15;1.10;;;25.40;47.20;;;;;;5007302;28;20024;-55
2022/05/17 11:50:43;;;;;;;1.58;0.80;;;25.40;47.20;;;;;;5007552;28;20058;-54
2022/05/17 11:53:24;;;;;;;2.65;1.35;;;25.40;47.30;;;;;;5006734;28;20370;-53
2022/05/17 11:56:24;;;;;;;2.58;0.95;;;25.50;47.30;;;;;;5007273;28;20112;-54
2022/05/17 11:59:13;;;;;;;1.90;1.00;;;25.50;47.30;;;;;;4987047;28;20038;-54
2022/05/17 12:01:39;;;;;;;1.92;1.13;;;25.40;47.30;;;;;;4987156;28;20235;-54
2022/05/17 12:04:29;;;;;;;2.67;1.35;;;25.40;47.30;;;;;;4987885;28;20637;-54
2022/05/17 12:06:54;;;;;;;1.60;0.82;;;25.40;47.30;;;;;;4987156;28;20570;-54
2022/05/17 12:09:23;;;;;;;1.67;1.10;;;25.40;47.20;;;;;;4990658;28;20128;-54
2022/05/17 12:12:32;;;;;;;1.60;0.70;;;25.40;47.20;;;;;;5006408;28;20030;-53
2022/05/17 12:15:13;;;;;;;2.22;1.02;;;25.40;47.10;;;;;;5006611;28;20022;-53
2022/05/17 12:17:45;;;;;;;2.70;0.90;;;25.50;47.10;;;;;;5005879;28;20030;-55
2022/05/17 12:20:14;;;;;;;1.58;0.90;;;25.50;47.10;;;;;;5006641;28;20087;-53
2022/05/17 12:22:55;;;;;;;1.88;0.90;;;25.40;47.10;;;;;;5006579;28;20033;-54
2022/05/17 12:25:28;;;;;;;1.05;0.70;;;25.50;47.10;;;;;;5006773;28;20025;-53
2022/05/17 12:27:54;;;;;;;1.42;0.82;;;25.50;47.10;;;;;;5005681;28;20036;-55
2022/05/17 12:33:24;;;;;;;1.60;1.00;;;25.50;47.20;;;;;;4995228;28;20040;-54
2022/05/17 12:35:51;;;;;;;1.60;0.90;;;25.50;47.30;;;;;;4987120;28;20089;-53
2022/05/17 12:44:19;;;;;;;2.03;1.02;;;25.50;47.30;;;;;;5006448;28;20156;-53
2022/05/17 12:46:47;;;;;;;1.38;0.82;;;25.50;47.40;;;;;;5006154;28;20038;-53
2022/05/17 12:49:33;;;;;;;3.03;1.13;;;25.50;47.30;;;;;;5006200;28;20133;-53
2022/05/17 12:52:20;;;;;;;1.33;0.90;;;25.50;47.20;;;;;;5006444;28;20041;-55
2022/05/17 12:54:50;;;;;;;1.80;0.82;;;25.50;47.30;;;;;;5005546;28;20103;-54
2022/05/17 12:57:26;;;;;;;2.55;1.00;;;25.60;47.30;;;;;;5006083;28;20038;-52
2022/05/17 13:00:06;;;;;;;1.70;0.90;;;25.60;47.30;;;;;;5005973;28;20413;-53
2022/05/17 13:02:32;;;;;;;1.77;0.90;;;25.50;47.30;;;;;;5006426;28;20485;-53
2022/05/17 13:04:57;;;;;;;1.35;0.80;;;25.60;47.20;;;;;;5006170;28;20110;-53
2022/05/17 13:07:23;;;;;;;1.58;0.95;;;25.60;47.30;;;;;;5005551;28;20049;-53
2022/05/17 13:10:03;;;;;;;1.77;0.90;;;25.60;47.40;;;;;;5005326;28;20140;-55
2022/05/17 13:12:32;;;;;;;1.40;0.70;;;25.60;47.30;;;;;;5004557;28;20037;-54
2022/05/17 13:14:58;;;;;;;2.08;0.98;;;25.60;47.20;;;;;;5005263;28;20052;-53
2022/05/17 13:17:33;;;;;;;1.80;1.00;;;25.60;47.20;;;;;;5004630;28;20026;-54
2022/05/17 13:20:13;;;;;;;2.42;1.10;;;25.60;47.60;;;;;;5004592;28;20030;-53
2022/05/17 13:22:42;;;;;;;1.92;1.00;;;25.60;47.30;;;;;;5004692;28;20037;-53
2022/05/17 13:25:17;;;;;;;1.88;0.98;;;25.60;47.30;;;;;;5004633;28;20032;-53